sensor_id;sensor_type;location;lat;lon;timestamp;P1;durP1;ratioP1;P2;durP2;ratioP2
37843;SDS011;63793;57.632;18.292;2024-02-28T00:01:03;18.15;;;9.93;;
37843;SDS011;63793;57.632;18.292;2024-02-28T00:03:30;16.15;;;9.13;;
37843;SDS011;63793;57.632;18.292;2024-02-28T00:05:58;15.95;;;11.00;;
37843;SDS011;63793;57.632;18.292;2024-02-28T00:08:25;16.55;;;9.85;;
37843;SDS011;63793;57.632;18.292;2024-02-28T00:10:52;12.68;;;8.93;;
37843;SDS011;63793;57.632;18.292;2024-02-28T00:13:20;13.15;;;9.10;;
37843;SDS011;63793;57.632;18.292;2024-02-28T00:15:49;15.10;;;9.75;;
37843;SDS011;63793;57.632;18.292;2024-02-28T00:18:16;13.55;;;8.85;;
37843;SDS011;63793;57.632;18.292;2024-02-28T00:20:46;15.65;;;9.65;;
37843;SDS011;63793;57.632;18.292;2024-02-28T00:23:13;16.88;;;10.18;;
37843;SDS011;63793;57.632;18.292;2024-02-28T00:25:40;15.93;;;10.30;;
37843;SDS011;63793;57.632;18.292;2024-02-28T00:28:07;16.83;;;9.35;;
37843;SDS011;63793;57.632;18.292;2024-02-28T00:30:35;15.50;;;9.90;;
37843;SDS011;63793;57.632;18.292;2024-02-28T00:33:02;14.40;;;9.70;;
37843;SDS011;63793;57.632;18.292;2024-02-28T00:35:31;13.13;;;9.38;;
37843;SDS011;63793;57.632;18.292;2024-02-28T00:38:03;16.45;;;10.15;;
37843;SDS011;63793;57.632;18.292;2024-02-28T00:40:30;14.52;;;8.63;;
37843;SDS011;63793;57.632;18.292;2024-02-28T00:42:57;17.17;;;10.98;;
37843;SDS011;63793;57.632;18.292;2024-02-28T00:45:24;22.08;;;12.48;;
37843;SDS011;63793;57.632;18.292;2024-02-28T00:47:51;19.50;;;12.05;;
37843;SDS011;63793;57.632;18.292;2024-02-28T00:50:21;17.48;;;10.20;;
37843;SDS011;63793;57.632;18.292;2024-02-28T00:52:48;19.02;;;10.30;;
37843;SDS011;63793;57.632;18.292;2024-02-28T00:55:15;18.92;;;10.88;;
37843;SDS011;63793;57.632;18.292;2024-02-28T00:57:42;16.95;;;10.38;;
37843;SDS011;63793;57.632;18.292;2024-02-28T01:00:09;14.77;;;9.23;;
37843;SDS011;63793;57.632;18.292;2024-02-28T01:02:36;18.58;;;9.43;;
37843;SDS011;63793;57.632;18.292;2024-02-28T01:05:03;15.30;;;9.10;;
37843;SDS011;63793;57.632;18.292;2024-02-28T01:07:31;15.52;;;8.57;;
37843;SDS011;63793;57.632;18.292;2024-02-28T01:09:58;17.10;;;9.32;;
37843;SDS011;63793;57.632;18.292;2024-02-28T01:12:25;18.23;;;9.38;;
37843;SDS011;63793;57.632;18.292;2024-02-28T01:14:52;14.05;;;8.75;;
37843;SDS011;63793;57.632;18.292;2024-02-28T01:17:19;14.25;;;9.18;;
37843;SDS011;63793;57.632;18.292;2024-02-28T01:19:46;18.60;;;9.43;;
37843;SDS011;63793;57.632;18.292;2024-02-28T01:22:13;14.77;;;9.25;;
37843;SDS011;63793;57.632;18.292;2024-02-28T01:24:40;16.30;;;8.27;;
37843;SDS011;63793;57.632;18.292;2024-02-28T01:27:07;27.45;;;9.45;;
37843;SDS011;63793;57.632;18.292;2024-02-28T01:29:34;16.98;;;7.88;;
37843;SDS011;63793;57.632;18.292;2024-02-28T01:32:01;16.92;;;7.63;;
37843;SDS011;63793;57.632;18.292;2024-02-28T01:34:29;12.18;;;8.20;;
37843;SDS011;63793;57.632;18.292;2024-02-28T01:36:56;13.43;;;6.97;;
37843;SDS011;63793;57.632;18.292;2024-02-28T01:39:23;13.27;;;8.07;;
37843;SDS011;63793;57.632;18.292;2024-02-28T01:41:53;21.20;;;8.20;;
37843;SDS011;63793;57.632;18.292;2024-02-28T01:44:21;12.00;;;8.68;;
37843;SDS011;63793;57.632;18.292;2024-02-28T01:46:48;17.02;;;8.18;;
37843;SDS011;63793;57.632;18.292;2024-02-28T01:49:16;10.52;;;6.55;;
37843;SDS011;63793;57.632;18.292;2024-02-28T01:51:44;16.05;;;7.53;;
37843;SDS011;63793;57.632;18.292;2024-02-28T01:54:12;19.77;;;7.25;;
37843;SDS011;63793;57.632;18.292;2024-02-28T01:56:40;15.60;;;8.98;;
37843;SDS011;63793;57.632;18.292;2024-02-28T01:59:08;15.57;;;6.55;;
37843;SDS011;63793;57.632;18.292;2024-02-28T02:01:37;12.20;;;7.68;;
37843;SDS011;63793;57.632;18.292;2024-02-28T02:04:04;13.70;;;6.97;;
37843;SDS011;63793;57.632;18.292;2024-02-28T02:06:32;14.00;;;7.40;;
37843;SDS011;63793;57.632;18.292;2024-02-28T02:09:00;33.95;;;9.52;;
37843;SDS011;63793;57.632;18.292;2024-02-28T02:11:28;19.52;;;8.13;;
37843;SDS011;63793;57.632;18.292;2024-02-28T02:13:55;20.92;;;8.77;;
37843;SDS011;63793;57.632;18.292;2024-02-28T02:16:22;12.85;;;7.93;;
37843;SDS011;63793;57.632;18.292;2024-02-28T02:18:52;18.45;;;7.95;;
37843;SDS011;63793;57.632;18.292;2024-02-28T02:21:20;13.40;;;7.40;;
37843;SDS011;63793;57.632;18.292;2024-02-28T02:23:51;16.13;;;7.65;;
37843;SDS011;63793;57.632;18.292;2024-02-28T02:26:18;12.98;;;7.60;;
37843;SDS011;63793;57.632;18.292;2024-02-28T02:28:45;29.02;;;9.40;;
37843;SDS011;63793;57.632;18.292;2024-02-28T02:31:13;21.70;;;9.15;;
37843;SDS011;63793;57.632;18.292;2024-02-28T02:33:40;10.93;;;6.45;;
37843;SDS011;63793;57.632;18.292;2024-02-28T02:36:07;21.73;;;7.57;;
37843;SDS011;63793;57.632;18.292;2024-02-28T02:38:34;33.45;;;8.40;;
37843;SDS011;63793;57.632;18.292;2024-02-28T02:41:01;11.20;;;8.18;;
37843;SDS011;63793;57.632;18.292;2024-02-28T02:43:28;16.55;;;7.93;;
37843;SDS011;63793;57.632;18.292;2024-02-28T02:45:55;9.00;;;5.85;;
37843;SDS011;63793;57.632;18.292;2024-02-28T02:48:22;18.27;;;6.75;;
37843;SDS011;63793;57.632;18.292;2024-02-28T02:50:49;10.02;;;6.22;;
37843;SDS011;63793;57.632;18.292;2024-02-28T02:53:16;15.88;;;7.15;;
37843;SDS011;63793;57.632;18.292;2024-02-28T02:55:43;10.77;;;7.13;;
37843;SDS011;63793;57.632;18.292;2024-02-28T02:58:10;11.88;;;7.00;;
37843;SDS011;63793;57.632;18.292;2024-02-28T03:00:37;11.57;;;6.13;;
37843;SDS011;63793;57.632;18.292;2024-02-28T03:03:04;16.45;;;7.70;;
37843;SDS011;63793;57.632;18.292;2024-02-28T03:05:32;10.52;;;7.45;;
37843;SDS011;63793;57.632;18.292;2024-02-28T03:07:59;15.73;;;7.22;;
37843;SDS011;63793;57.632;18.292;2024-02-28T03:10:25;10.93;;;6.43;;
37843;SDS011;63793;57.632;18.292;2024-02-28T03:12:52;11.45;;;5.90;;
37843;SDS011;63793;57.632;18.292;2024-02-28T03:15:20;9.63;;;6.22;;
37843;SDS011;63793;57.632;18.292;2024-02-28T03:17:47;15.77;;;6.88;;
37843;SDS011;63793;57.632;18.292;2024-02-28T03:20:14;11.57;;;6.88;;
37843;SDS011;63793;57.632;18.292;2024-02-28T03:22:41;8.60;;;5.65;;
37843;SDS011;63793;57.632;18.292;2024-02-28T03:25:08;11.15;;;5.95;;
37843;SDS011;63793;57.632;18.292;2024-02-28T03:27:35;24.45;;;6.82;;
37843;SDS011;63793;57.632;18.292;2024-02-28T03:30:02;9.98;;;6.65;;
37843;SDS011;63793;57.632;18.292;2024-02-28T03:32:30;16.08;;;8.05;;
37843;SDS011;63793;57.632;18.292;2024-02-28T03:34:57;11.23;;;6.97;;
37843;SDS011;63793;57.632;18.292;2024-02-28T03:37:24;11.02;;;7.40;;
37843;SDS011;63793;57.632;18.292;2024-02-28T03:39:51;8.10;;;6.63;;
37843;SDS011;63793;57.632;18.292;2024-02-28T03:42:18;12.77;;;7.15;;
37843;SDS011;63793;57.632;18.292;2024-02-28T03:44:45;12.38;;;7.50;;
37843;SDS011;63793;57.632;18.292;2024-02-28T03:47:12;13.52;;;8.68;;
37843;SDS011;63793;57.632;18.292;2024-02-28T03:49:39;19.10;;;8.02;;
37843;SDS011;63793;57.632;18.292;2024-02-28T03:52:06;14.32;;;8.68;;
37843;SDS011;63793;57.632;18.292;2024-02-28T03:54:33;11.15;;;6.88;;
37843;SDS011;63793;57.632;18.292;2024-02-28T03:57:00;15.00;;;7.18;;
37843;SDS011;63793;57.632;18.292;2024-02-28T03:59:26;15.30;;;7.93;;
37843;SDS011;63793;57.632;18.292;2024-02-28T04:01:53;11.25;;;7.18;;
37843;SDS011;63793;57.632;18.292;2024-02-28T04:04:20;14.32;;;6.85;;
37843;SDS011;63793;57.632;18.292;2024-02-28T04:06:47;14.65;;;9.15;;
37843;SDS011;63793;57.632;18.292;2024-02-28T04:09:14;11.02;;;7.90;;
37843;SDS011;63793;57.632;18.292;2024-02-28T04:11:41;17.60;;;9.98;;
37843;SDS011;63793;57.632;18.292;2024-02-28T04:14:09;13.13;;;9.45;;
37843;SDS011;63793;57.632;18.292;2024-02-28T04:16:40;12.88;;;8.30;;
37843;SDS011;63793;57.632;18.292;2024-02-28T04:19:10;25.08;;;10.85;;
37843;SDS011;63793;57.632;18.292;2024-02-28T04:21:38;21.30;;;11.57;;
37843;SDS011;63793;57.632;18.292;2024-02-28T04:24:08;24.65;;;10.93;;
37843;SDS011;63793;57.632;18.292;2024-02-28T04:26:35;19.10;;;9.35;;
37843;SDS011;63793;57.632;18.292;2024-02-28T04:29:02;15.38;;;10.05;;
37843;SDS011;63793;57.632;18.292;2024-02-28T04:31:31;27.27;;;10.52;;
37843;SDS011;63793;57.632;18.292;2024-02-28T04:33:58;19.70;;;11.38;;
37843;SDS011;63793;57.632;18.292;2024-02-28T04:36:25;20.20;;;10.73;;
37843;SDS011;63793;57.632;18.292;2024-02-28T04:38:52;24.70;;;12.02;;
37843;SDS011;63793;57.632;18.292;2024-02-28T04:41:19;25.17;;;11.05;;
37843;SDS011;63793;57.632;18.292;2024-02-28T04:43:46;18.35;;;10.32;;
37843;SDS011;63793;57.632;18.292;2024-02-28T04:46:13;24.08;;;11.00;;
37843;SDS011;63793;57.632;18.292;2024-02-28T04:48:40;25.08;;;12.02;;
37843;SDS011;63793;57.632;18.292;2024-02-28T04:51:07;26.10;;;11.55;;
37843;SDS011;63793;57.632;18.292;2024-02-28T04:53:34;16.50;;;10.20;;
37843;SDS011;63793;57.632;18.292;2024-02-28T04:56:01;18.63;;;10.88;;
37843;SDS011;63793;57.632;18.292;2024-02-28T04:58:28;18.55;;;10.20;;
37843;SDS011;63793;57.632;18.292;2024-02-28T05:00:55;17.42;;;10.43;;
37843;SDS011;63793;57.632;18.292;2024-02-28T05:03:22;21.73;;;10.95;;
37843;SDS011;63793;57.632;18.292;2024-02-28T05:05:51;15.13;;;9.50;;
37843;SDS011;63793;57.632;18.292;2024-02-28T05:08:21;17.83;;;10.40;;
37843;SDS011;63793;57.632;18.292;2024-02-28T05:10:49;16.45;;;10.93;;
37843;SDS011;63793;57.632;18.292;2024-02-28T05:13:17;16.60;;;11.90;;
37843;SDS011;63793;57.632;18.292;2024-02-28T05:15:44;15.25;;;10.05;;
37843;SDS011;63793;57.632;18.292;2024-02-28T05:18:11;19.17;;;10.93;;
37843;SDS011;63793;57.632;18.292;2024-02-28T05:20:38;18.02;;;11.18;;
37843;SDS011;63793;57.632;18.292;2024-02-28T05:23:04;15.45;;;9.18;;
37843;SDS011;63793;57.632;18.292;2024-02-28T05:25:31;21.30;;;10.25;;
37843;SDS011;63793;57.632;18.292;2024-02-28T05:27:58;14.43;;;9.85;;
37843;SDS011;63793;57.632;18.292;2024-02-28T05:30:25;18.80;;;11.15;;
37843;SDS011;63793;57.632;18.292;2024-02-28T05:32:52;22.95;;;11.10;;
37843;SDS011;63793;57.632;18.292;2024-02-28T05:35:19;17.30;;;11.07;;
37843;SDS011;63793;57.632;18.292;2024-02-28T05:37:46;20.27;;;11.05;;
37843;SDS011;63793;57.632;18.292;2024-02-28T05:40:13;29.70;;;11.82;;
37843;SDS011;63793;57.632;18.292;2024-02-28T05:42:40;19.63;;;11.38;;
37843;SDS011;63793;57.632;18.292;2024-02-28T05:45:08;19.42;;;11.07;;
37843;SDS011;63793;57.632;18.292;2024-02-28T05:47:36;22.58;;;10.88;;
37843;SDS011;63793;57.632;18.292;2024-02-28T05:50:04;16.52;;;10.15;;
37843;SDS011;63793;57.632;18.292;2024-02-28T05:52:31;17.92;;;11.63;;
37843;SDS011;63793;57.632;18.292;2024-02-28T05:54:58;21.70;;;11.75;;
37843;SDS011;63793;57.632;18.292;2024-02-28T05:57:26;30.30;;;12.30;;
37843;SDS011;63793;57.632;18.292;2024-02-28T05:59:53;22.35;;;11.35;;
37843;SDS011;63793;57.632;18.292;2024-02-28T06:02:20;20.40;;;11.98;;
37843;SDS011;63793;57.632;18.292;2024-02-28T06:04:46;24.10;;;15.38;;
37843;SDS011;63793;57.632;18.292;2024-02-28T06:07:13;23.80;;;13.25;;
37843;SDS011;63793;57.632;18.292;2024-02-28T06:09:40;21.38;;;12.18;;
37843;SDS011;63793;57.632;18.292;2024-02-28T06:12:07;20.90;;;12.82;;
37843;SDS011;63793;57.632;18.292;2024-02-28T06:14:34;24.85;;;12.70;;
37843;SDS011;63793;57.632;18.292;2024-02-28T06:17:01;21.70;;;11.25;;
37843;SDS011;63793;57.632;18.292;2024-02-28T06:19:28;24.27;;;16.23;;
37843;SDS011;63793;57.632;18.292;2024-02-28T06:21:55;21.63;;;13.90;;
37843;SDS011;63793;57.632;18.292;2024-02-28T06:24:24;23.90;;;13.00;;
37843;SDS011;63793;57.632;18.292;2024-02-28T06:26:51;23.60;;;13.13;;
37843;SDS011;63793;57.632;18.292;2024-02-28T06:29:18;27.27;;;15.73;;
37843;SDS011;63793;57.632;18.292;2024-02-28T06:31:49;24.15;;;15.27;;
37843;SDS011;63793;57.632;18.292;2024-02-28T06:34:18;28.27;;;16.20;;
37843;SDS011;63793;57.632;18.292;2024-02-28T06:36:45;25.27;;;14.88;;
37843;SDS011;63793;57.632;18.292;2024-02-28T06:39:12;27.40;;;14.27;;
37843;SDS011;63793;57.632;18.292;2024-02-28T06:41:39;23.00;;;11.73;;
37843;SDS011;63793;57.632;18.292;2024-02-28T06:44:06;22.38;;;13.93;;
37843;SDS011;63793;57.632;18.292;2024-02-28T06:46:34;27.67;;;14.20;;
37843;SDS011;63793;57.632;18.292;2024-02-28T06:49:01;22.42;;;13.88;;
37843;SDS011;63793;57.632;18.292;2024-02-28T06:51:28;22.77;;;12.95;;
37843;SDS011;63793;57.632;18.292;2024-02-28T06:53:55;25.30;;;14.98;;
37843;SDS011;63793;57.632;18.292;2024-02-28T06:56:21;25.70;;;13.43;;
37843;SDS011;63793;57.632;18.292;2024-02-28T06:58:48;22.30;;;13.65;;
37843;SDS011;63793;57.632;18.292;2024-02-28T07:01:15;22.73;;;13.70;;
37843;SDS011;63793;57.632;18.292;2024-02-28T07:03:43;21.80;;;12.95;;
37843;SDS011;63793;57.632;18.292;2024-02-28T07:06:11;25.42;;;15.52;;
37843;SDS011;63793;57.632;18.292;2024-02-28T07:08:38;20.92;;;12.77;;
37843;SDS011;63793;57.632;18.292;2024-02-28T07:11:05;31.10;;;14.30;;
37843;SDS011;63793;57.632;18.292;2024-02-28T07:13:39;17.20;;;12.73;;
37843;SDS011;63793;57.632;18.292;2024-02-28T07:16:06;20.05;;;12.15;;
37843;SDS011;63793;57.632;18.292;2024-02-28T07:18:33;21.83;;;13.15;;
37843;SDS011;63793;57.632;18.292;2024-02-28T07:21:01;20.80;;;13.27;;
37843;SDS011;63793;57.632;18.292;2024-02-28T07:23:28;22.50;;;13.88;;
37843;SDS011;63793;57.632;18.292;2024-02-28T07:25:55;22.52;;;12.70;;
37843;SDS011;63793;57.632;18.292;2024-02-28T07:28:23;22.42;;;14.18;;
37843;SDS011;63793;57.632;18.292;2024-02-28T07:30:50;26.02;;;14.10;;
37843;SDS011;63793;57.632;18.292;2024-02-28T07:33:17;22.15;;;14.48;;
37843;SDS011;63793;57.632;18.292;2024-02-28T07:35:45;20.00;;;13.07;;
37843;SDS011;63793;57.632;18.292;2024-02-28T07:38:13;25.45;;;13.43;;
37843;SDS011;63793;57.632;18.292;2024-02-28T07:40:40;19.85;;;12.48;;
37843;SDS011;63793;57.632;18.292;2024-02-28T07:43:07;19.50;;;12.38;;
37843;SDS011;63793;57.632;18.292;2024-02-28T07:45:34;24.88;;;15.00;;
37843;SDS011;63793;57.632;18.292;2024-02-28T07:48:01;19.98;;;11.57;;
37843;SDS011;63793;57.632;18.292;2024-02-28T07:50:28;19.15;;;13.27;;
37843;SDS011;63793;57.632;18.292;2024-02-28T07:52:55;22.50;;;12.43;;
37843;SDS011;63793;57.632;18.292;2024-02-28T07:55:22;22.25;;;12.85;;
37843;SDS011;63793;57.632;18.292;2024-02-28T07:57:55;21.45;;;12.63;;
37843;SDS011;63793;57.632;18.292;2024-02-28T08:00:22;16.60;;;11.02;;
37843;SDS011;63793;57.632;18.292;2024-02-28T08:02:51;18.38;;;12.43;;
37843;SDS011;63793;57.632;18.292;2024-02-28T08:05:18;19.25;;;12.18;;
37843;SDS011;63793;57.632;18.292;2024-02-28T08:07:45;18.77;;;10.50;;
37843;SDS011;63793;57.632;18.292;2024-02-28T08:10:12;15.43;;;11.18;;
37843;SDS011;63793;57.632;18.292;2024-02-28T08:12:40;19.13;;;11.18;;
37843;SDS011;63793;57.632;18.292;2024-02-28T08:15:07;17.75;;;11.57;;
37843;SDS011;63793;57.632;18.292;2024-02-28T08:17:34;18.08;;;11.63;;
37843;SDS011;63793;57.632;18.292;2024-02-28T08:20:04;18.20;;;11.80;;
37843;SDS011;63793;57.632;18.292;2024-02-28T08:22:31;17.95;;;12.05;;
37843;SDS011;63793;57.632;18.292;2024-02-28T08:24:58;17.63;;;13.23;;
37843;SDS011;63793;57.632;18.292;2024-02-28T08:27:25;17.52;;;11.50;;
37843;SDS011;63793;57.632;18.292;2024-02-28T08:29:52;15.90;;;11.52;;
37843;SDS011;63793;57.632;18.292;2024-02-28T08:32:19;15.18;;;10.93;;
37843;SDS011;63793;57.632;18.292;2024-02-28T08:34:46;14.93;;;9.73;;
37843;SDS011;63793;57.632;18.292;2024-02-28T08:37:13;15.80;;;10.88;;
37843;SDS011;63793;57.632;18.292;2024-02-28T08:39:40;15.35;;;11.23;;
37843;SDS011;63793;57.632;18.292;2024-02-28T08:42:07;15.80;;;9.65;;
37843;SDS011;63793;57.632;18.292;2024-02-28T08:44:34;14.60;;;6.63;;
37843;SDS011;63793;57.632;18.292;2024-02-28T08:47:01;13.60;;;6.43;;
37843;SDS011;63793;57.632;18.292;2024-02-28T08:49:28;32.05;;;7.72;;
37843;SDS011;63793;57.632;18.292;2024-02-28T08:51:57;18.80;;;5.65;;
37843;SDS011;63793;57.632;18.292;2024-02-28T08:54:24;10.18;;;4.50;;
37843;SDS011;63793;57.632;18.292;2024-02-28T08:56:52;7.40;;;4.10;;
37843;SDS011;63793;57.632;18.292;2024-02-28T08:59:28;5.25;;;3.95;;
37843;SDS011;63793;57.632;18.292;2024-02-28T09:01:55;6.50;;;4.13;;
37843;SDS011;63793;57.632;18.292;2024-02-28T09:04:22;5.28;;;3.88;;
37843;SDS011;63793;57.632;18.292;2024-02-28T09:06:49;6.10;;;4.20;;
37843;SDS011;63793;57.632;18.292;2024-02-28T09:09:16;7.95;;;4.03;;
37843;SDS011;63793;57.632;18.292;2024-02-28T09:11:43;8.63;;;5.07;;
37843;SDS011;63793;57.632;18.292;2024-02-28T09:14:10;7.32;;;5.35;;
37843;SDS011;63793;57.632;18.292;2024-02-28T09:16:37;5.47;;;4.95;;
37843;SDS011;63793;57.632;18.292;2024-02-28T09:19:04;16.33;;;6.35;;
37843;SDS011;63793;57.632;18.292;2024-02-28T09:21:31;8.45;;;5.35;;
37843;SDS011;63793;57.632;18.292;2024-02-28T09:23:58;6.80;;;4.05;;
37843;SDS011;63793;57.632;18.292;2024-02-28T09:26:25;7.03;;;4.78;;
37843;SDS011;63793;57.632;18.292;2024-02-28T09:28:53;10.30;;;6.20;;
37843;SDS011;63793;57.632;18.292;2024-02-28T09:31:20;10.95;;;6.55;;
37843;SDS011;63793;57.632;18.292;2024-02-28T09:33:47;11.15;;;6.85;;
37843;SDS011;63793;57.632;18.292;2024-02-28T09:36:15;10.65;;;7.00;;
37843;SDS011;63793;57.632;18.292;2024-02-28T09:38:42;12.57;;;6.78;;
37843;SDS011;63793;57.632;18.292;2024-02-28T09:41:14;13.32;;;6.30;;
37843;SDS011;63793;57.632;18.292;2024-02-28T09:43:43;11.07;;;7.55;;
37843;SDS011;63793;57.632;18.292;2024-02-28T09:46:11;13.88;;;7.00;;
37843;SDS011;63793;57.632;18.292;2024-02-28T09:48:40;13.18;;;7.32;;
37843;SDS011;63793;57.632;18.292;2024-02-28T09:51:10;10.82;;;7.15;;
37843;SDS011;63793;57.632;18.292;2024-02-28T09:53:39;13.70;;;6.68;;
37843;SDS011;63793;57.632;18.292;2024-02-28T09:56:06;16.05;;;7.93;;
37843;SDS011;63793;57.632;18.292;2024-02-28T09:58:34;12.80;;;7.50;;
37843;SDS011;63793;57.632;18.292;2024-02-28T10:01:01;17.85;;;7.47;;
37843;SDS011;63793;57.632;18.292;2024-02-28T10:03:31;14.48;;;9.65;;
37843;SDS011;63793;57.632;18.292;2024-02-28T10:05:58;11.52;;;7.55;;
37843;SDS011;63793;57.632;18.292;2024-02-28T10:08:30;18.90;;;9.02;;
37843;SDS011;63793;57.632;18.292;2024-02-28T10:10:58;14.32;;;8.48;;
37843;SDS011;63793;57.632;18.292;2024-02-28T10:13:25;17.45;;;9.02;;
37843;SDS011;63793;57.632;18.292;2024-02-28T10:15:52;16.15;;;8.50;;
37843;SDS011;63793;57.632;18.292;2024-02-28T10:18:20;13.35;;;8.48;;
37843;SDS011;63793;57.632;18.292;2024-02-28T10:20:47;21.92;;;12.15;;
37843;SDS011;63793;57.632;18.292;2024-02-28T10:23:14;17.30;;;10.85;;
37843;SDS011;63793;57.632;18.292;2024-02-28T10:25:46;13.77;;;8.93;;
37843;SDS011;63793;57.632;18.292;2024-02-28T10:28:23;10.18;;;7.78;;
37843;SDS011;63793;57.632;18.292;2024-02-28T10:30:50;17.33;;;9.82;;
37843;SDS011;63793;57.632;18.292;2024-02-28T10:33:18;14.30;;;8.63;;
37843;SDS011;63793;57.632;18.292;2024-02-28T10:35:45;9.93;;;7.32;;
37843;SDS011;63793;57.632;18.292;2024-02-28T10:38:16;11.20;;;7.28;;
37843;SDS011;63793;57.632;18.292;2024-02-28T10:40:43;9.98;;;6.93;;
37843;SDS011;63793;57.632;18.292;2024-02-28T10:43:10;9.90;;;6.20;;
37843;SDS011;63793;57.632;18.292;2024-02-28T10:45:38;10.80;;;6.07;;
37843;SDS011;63793;57.632;18.292;2024-02-28T10:48:26;9.82;;;5.55;;
37843;SDS011;63793;57.632;18.292;2024-02-28T10:50:53;7.85;;;5.32;;
37843;SDS011;63793;57.632;18.292;2024-02-28T10:53:22;8.75;;;5.75;;
37843;SDS011;63793;57.632;18.292;2024-02-28T10:55:56;5.90;;;5.05;;
37843;SDS011;63793;57.632;18.292;2024-02-28T10:58:29;11.95;;;6.07;;
37843;SDS011;63793;57.632;18.292;2024-02-28T11:01:01;6.68;;;5.97;;
37843;SDS011;63793;57.632;18.292;2024-02-28T11:03:29;10.13;;;6.90;;
37843;SDS011;63793;57.632;18.292;2024-02-28T11:05:57;7.07;;;5.60;;
37843;SDS011;63793;57.632;18.292;2024-02-28T11:08:24;7.75;;;5.13;;
37843;SDS011;63793;57.632;18.292;2024-02-28T11:13:26;7.75;;;5.53;;
37843;SDS011;63793;57.632;18.292;2024-02-28T11:15:54;17.95;;;6.07;;
37843;SDS011;63793;57.632;18.292;2024-02-28T11:18:24;9.27;;;4.88;;
37843;SDS011;63793;57.632;18.292;2024-02-28T11:20:51;9.43;;;4.50;;
37843;SDS011;63793;57.632;18.292;2024-02-28T11:23:18;12.57;;;4.72;;
37843;SDS011;63793;57.632;18.292;2024-02-28T11:25:45;7.90;;;4.80;;
37843;SDS011;63793;57.632;18.292;2024-02-28T11:28:12;9.30;;;5.43;;
37843;SDS011;63793;57.632;18.292;2024-02-28T11:30:40;6.90;;;5.22;;
37843;SDS011;63793;57.632;18.292;2024-02-28T11:33:08;15.02;;;5.00;;
37843;SDS011;63793;57.632;18.292;2024-02-28T11:35:35;14.63;;;5.82;;
37843;SDS011;63793;57.632;18.292;2024-02-28T11:38:02;11.70;;;5.25;;
37843;SDS011;63793;57.632;18.292;2024-02-28T11:42:59;12.68;;;5.15;;
37843;SDS011;63793;57.632;18.292;2024-02-28T11:45:30;13.93;;;5.43;;
37843;SDS011;63793;57.632;18.292;2024-02-28T11:47:57;9.57;;;5.47;;
37843;SDS011;63793;57.632;18.292;2024-02-28T11:50:24;19.30;;;5.90;;
37843;SDS011;63793;57.632;18.292;2024-02-28T11:52:52;9.18;;;5.28;;
37843;SDS011;63793;57.632;18.292;2024-02-28T11:55:19;11.50;;;4.85;;
37843;SDS011;63793;57.632;18.292;2024-02-28T11:57:46;7.53;;;5.45;;
37843;SDS011;63793;57.632;18.292;2024-02-28T12:00:14;11.50;;;5.07;;
37843;SDS011;63793;57.632;18.292;2024-02-28T12:02:41;4.93;;;4.28;;
37843;SDS011;63793;57.632;18.292;2024-02-28T12:05:08;7.18;;;5.45;;
37843;SDS011;63793;57.632;18.292;2024-02-28T12:07:36;12.70;;;5.03;;
37843;SDS011;63793;57.632;18.292;2024-02-28T12:10:03;7.68;;;5.18;;
37843;SDS011;63793;57.632;18.292;2024-02-28T12:12:31;6.15;;;4.32;;
37843;SDS011;63793;57.632;18.292;2024-02-28T12:14:58;10.13;;;5.82;;
37843;SDS011;63793;57.632;18.292;2024-02-28T12:17:26;10.95;;;6.35;;
37843;SDS011;63793;57.632;18.292;2024-02-28T12:19:53;5.25;;;4.45;;
37843;SDS011;63793;57.632;18.292;2024-02-28T12:22:22;7.97;;;4.78;;
37843;SDS011;63793;57.632;18.292;2024-02-28T12:24:49;10.77;;;5.25;;
37843;SDS011;63793;57.632;18.292;2024-02-28T12:27:16;8.10;;;5.93;;
37843;SDS011;63793;57.632;18.292;2024-02-28T12:29:43;9.93;;;5.32;;
37843;SDS011;63793;57.632;18.292;2024-02-28T12:32:10;6.85;;;5.13;;
37843;SDS011;63793;57.632;18.292;2024-02-28T12:34:38;9.52;;;5.00;;
37843;SDS011;63793;57.632;18.292;2024-02-28T12:37:05;5.65;;;5.05;;
37843;SDS011;63793;57.632;18.292;2024-02-28T12:39:33;7.45;;;5.30;;
37843;SDS011;63793;57.632;18.292;2024-02-28T12:42:01;8.90;;;5.07;;
37843;SDS011;63793;57.632;18.292;2024-02-28T12:44:28;10.15;;;5.15;;
37843;SDS011;63793;57.632;18.292;2024-02-28T12:46:55;11.85;;;5.78;;
37843;SDS011;63793;57.632;18.292;2024-02-28T12:49:22;6.30;;;4.80;;
37843;SDS011;63793;57.632;18.292;2024-02-28T12:51:49;18.73;;;5.85;;
37843;SDS011;63793;57.632;18.292;2024-02-28T12:54:17;10.43;;;6.38;;
37843;SDS011;63793;57.632;18.292;2024-02-28T12:56:47;13.70;;;6.70;;
37843;SDS011;63793;57.632;18.292;2024-02-28T12:59:15;9.30;;;6.30;;
37843;SDS011;63793;57.632;18.292;2024-02-28T13:01:42;9.52;;;6.30;;
37843;SDS011;63793;57.632;18.292;2024-02-28T13:04:10;14.52;;;5.68;;
37843;SDS011;63793;57.632;18.292;2024-02-28T13:06:37;15.05;;;6.20;;
37843;SDS011;63793;57.632;18.292;2024-02-28T13:09:06;11.65;;;5.93;;
37843;SDS011;63793;57.632;18.292;2024-02-28T13:11:38;10.48;;;5.15;;
37843;SDS011;63793;57.632;18.292;2024-02-28T13:14:06;9.00;;;5.38;;
37843;SDS011;63793;57.632;18.292;2024-02-28T13:16:35;22.65;;;6.72;;
37843;SDS011;63793;57.632;18.292;2024-02-28T13:19:02;6.47;;;5.35;;
37843;SDS011;63793;57.632;18.292;2024-02-28T13:21:31;16.25;;;9.25;;
37843;SDS011;63793;57.632;18.292;2024-02-28T13:26:28;11.82;;;7.00;;
37843;SDS011;63793;57.632;18.292;2024-02-28T13:28:55;11.07;;;6.38;;
37843;SDS011;63793;57.632;18.292;2024-02-28T13:31:23;6.85;;;5.00;;
37843;SDS011;63793;57.632;18.292;2024-02-28T13:33:50;17.85;;;7.65;;
37843;SDS011;63793;57.632;18.292;2024-02-28T13:36:17;13.27;;;6.55;;
37843;SDS011;63793;57.632;18.292;2024-02-28T13:38:44;9.55;;;5.88;;
37843;SDS011;63793;57.632;18.292;2024-02-28T13:41:11;18.25;;;6.32;;
37843;SDS011;63793;57.632;18.292;2024-02-28T13:43:38;8.13;;;5.20;;
37843;SDS011;63793;57.632;18.292;2024-02-28T13:46:05;9.25;;;6.10;;
37843;SDS011;63793;57.632;18.292;2024-02-28T13:48:32;9.90;;;5.88;;
37843;SDS011;63793;57.632;18.292;2024-02-28T13:51:00;8.18;;;6.28;;
37843;SDS011;63793;57.632;18.292;2024-02-28T13:53:28;16.85;;;6.43;;
37843;SDS011;63793;57.632;18.292;2024-02-28T13:55:55;9.50;;;6.13;;
37843;SDS011;63793;57.632;18.292;2024-02-28T13:58:22;16.23;;;6.20;;
37843;SDS011;63793;57.632;18.292;2024-02-28T14:00:49;8.52;;;5.47;;
37843;SDS011;63793;57.632;18.292;2024-02-28T14:03:17;9.45;;;5.68;;
37843;SDS011;63793;57.632;18.292;2024-02-28T14:05:44;8.05;;;6.60;;
37843;SDS011;63793;57.632;18.292;2024-02-28T14:08:11;11.93;;;6.72;;
37843;SDS011;63793;57.632;18.292;2024-02-28T14:10:39;7.85;;;5.35;;
37843;SDS011;63793;57.632;18.292;2024-02-28T14:13:06;10.38;;;6.82;;
37843;SDS011;63793;57.632;18.292;2024-02-28T14:15:33;16.58;;;6.88;;
37843;SDS011;63793;57.632;18.292;2024-02-28T14:18:03;12.65;;;6.35;;
37843;SDS011;63793;57.632;18.292;2024-02-28T14:20:30;9.65;;;6.07;;
37843;SDS011;63793;57.632;18.292;2024-02-28T14:22:57;9.23;;;6.07;;
37843;SDS011;63793;57.632;18.292;2024-02-28T14:25:24;18.10;;;6.85;;
37843;SDS011;63793;57.632;18.292;2024-02-28T14:27:52;11.73;;;5.53;;
37843;SDS011;63793;57.632;18.292;2024-02-28T14:30:19;8.55;;;5.57;;